sensor_id;sensor_type;location;lat;lon;timestamp;P1;durP1;ratioP1;P2;durP2;ratioP2
41077;SDS011;26823;42.662;23.352;2023-02-13T00:00:29;58.70;;;22.05;;
41077;SDS011;26823;42.662;23.352;2023-02-13T00:02:55;59.80;;;23.42;;
41077;SDS011;26823;42.662;23.352;2023-02-13T00:05:20;54.80;;;23.10;;
41077;SDS011;26823;42.662;23.352;2023-02-13T00:07:45;58.08;;;23.85;;
41077;SDS011;26823;42.662;23.352;2023-02-13T00:10:11;59.28;;;23.90;;
41077;SDS011;26823;42.662;23.352;2023-02-13T00:12:36;55.75;;;23.33;;
41077;SDS011;26823;42.662;23.352;2023-02-13T00:15:02;59.20;;;22.92;;
41077;SDS011;26823;42.662;23.352;2023-02-13T00:17:28;57.65;;;24.80;;
41077;SDS011;26823;42.662;23.352;2023-02-13T00:19:54;57.25;;;22.30;;
41077;SDS011;26823;42.662;23.352;2023-02-13T00:22:19;57.30;;;23.95;;
41077;SDS011;26823;42.662;23.352;2023-02-13T00:24:45;54.35;;;24.67;;
41077;SDS011;26823;42.662;23.352;2023-02-13T00:27:10;54.40;;;21.90;;
41077;SDS011;26823;42.662;23.352;2023-02-13T00:29:35;53.10;;;24.08;;
41077;SDS011;26823;42.662;23.352;2023-02-13T00:32:01;52.90;;;23.13;;
41077;SDS011;26823;42.662;23.352;2023-02-13T00:34:26;52.38;;;23.50;;
41077;SDS011;26823;42.662;23.352;2023-02-13T00:36:52;57.05;;;23.92;;
41077;SDS011;26823;42.662;23.352;2023-02-13T00:39:17;57.53;;;23.13;;
41077;SDS011;26823;42.662;23.352;2023-02-13T00:41:43;52.83;;;23.45;;
41077;SDS011;26823;42.662;23.352;2023-02-13T00:44:09;56.38;;;22.65;;
41077;SDS011;26823;42.662;23.352;2023-02-13T00:46:35;62.30;;;23.80;;
41077;SDS011;26823;42.662;23.352;2023-02-13T00:49:02;51.72;;;22.35;;
41077;SDS011;26823;42.662;23.352;2023-02-13T00:51:28;56.00;;;24.60;;
41077;SDS011;26823;42.662;23.352;2023-02-13T00:53:54;62.88;;;24.13;;
41077;SDS011;26823;42.662;23.352;2023-02-13T00:56:19;61.67;;;23.55;;
41077;SDS011;26823;42.662;23.352;2023-02-13T00:58:44;59.30;;;23.67;;
41077;SDS011;26823;42.662;23.352;2023-02-13T01:01:10;65.15;;;24.88;;
41077;SDS011;26823;42.662;23.352;2023-02-13T01:03:35;50.35;;;20.77;;
41077;SDS011;26823;42.662;23.352;2023-02-13T01:06:01;53.03;;;22.98;;
41077;SDS011;26823;42.662;23.352;2023-02-13T01:08:26;51.88;;;23.92;;
41077;SDS011;26823;42.662;23.352;2023-02-13T01:10:55;56.58;;;22.00;;
41077;SDS011;26823;42.662;23.352;2023-02-13T01:13:20;51.25;;;23.08;;
41077;SDS011;26823;42.662;23.352;2023-02-13T01:15:52;56.65;;;22.30;;
41077;SDS011;26823;42.662;23.352;2023-02-13T01:18:18;61.25;;;24.10;;
41077;SDS011;26823;42.662;23.352;2023-02-13T01:20:45;56.25;;;24.30;;
41077;SDS011;26823;42.662;23.352;2023-02-13T01:25:44;55.20;;;21.80;;
41077;SDS011;26823;42.662;23.352;2023-02-13T01:28:09;51.47;;;22.13;;
41077;SDS011;26823;42.662;23.352;2023-02-13T01:30:35;55.47;;;24.13;;
41077;SDS011;26823;42.662;23.352;2023-02-13T01:33:00;55.30;;;25.50;;
41077;SDS011;26823;42.662;23.352;2023-02-13T01:35:26;55.85;;;22.55;;
41077;SDS011;26823;42.662;23.352;2023-02-13T01:37:51;57.85;;;23.15;;
41077;SDS011;26823;42.662;23.352;2023-02-13T01:40:17;56.05;;;22.20;;
41077;SDS011;26823;42.662;23.352;2023-02-13T01:42:42;56.65;;;23.13;;
41077;SDS011;26823;42.662;23.352;2023-02-13T01:45:18;55.38;;;23.00;;
41077;SDS011;26823;42.662;23.352;2023-02-13T01:48:11;53.88;;;24.48;;
41077;SDS011;26823;42.662;23.352;2023-02-13T01:50:45;50.50;;;22.00;;
41077;SDS011;26823;42.662;23.352;2023-02-13T01:55:49;58.92;;;23.67;;
41077;SDS011;26823;42.662;23.352;2023-02-13T01:58:20;59.07;;;24.83;;
41077;SDS011;26823;42.662;23.352;2023-02-13T02:00:49;55.95;;;23.30;;
41077;SDS011;26823;42.662;23.352;2023-02-13T02:03:19;48.20;;;22.92;;
41077;SDS011;26823;42.662;23.352;2023-02-13T02:05:54;58.05;;;22.85;;
41077;SDS011;26823;42.662;23.352;2023-02-13T02:08:22;60.42;;;24.60;;
41077;SDS011;26823;42.662;23.352;2023-02-13T02:10:48;46.28;;;21.40;;
41077;SDS011;26823;42.662;23.352;2023-02-13T02:13:18;57.20;;;24.75;;
41077;SDS011;26823;42.662;23.352;2023-02-13T02:15:45;52.83;;;21.98;;
41077;SDS011;26823;42.662;23.352;2023-02-13T02:18:15;54.50;;;20.70;;
41077;SDS011;26823;42.662;23.352;2023-02-13T02:35:32;49.58;;;22.50;;
41077;SDS011;26823;42.662;23.352;2023-02-13T02:51:58;46.88;;;22.35;;
41077;SDS011;26823;42.662;23.352;2023-02-13T02:54:30;53.90;;;23.17;;
41077;SDS011;26823;42.662;23.352;2023-02-13T02:58:16;49.92;;;21.83;;
41077;SDS011;26823;42.662;23.352;2023-02-13T03:00:46;54.28;;;21.25;;
41077;SDS011;26823;42.662;23.352;2023-02-13T03:03:33;53.47;;;22.63;;
41077;SDS011;26823;42.662;23.352;2023-02-13T03:06:37;52.40;;;23.23;;
41077;SDS011;26823;42.662;23.352;2023-02-13T03:09:09;57.88;;;23.95;;
41077;SDS011;26823;42.662;23.352;2023-02-13T03:11:58;57.45;;;22.60;;
41077;SDS011;26823;42.662;23.352;2023-02-13T03:14:44;53.33;;;22.08;;
41077;SDS011;26823;42.662;23.352;2023-02-13T03:17:10;56.00;;;20.92;;
41077;SDS011;26823;42.662;23.352;2023-02-13T03:20:09;57.80;;;22.60;;
41077;SDS011;26823;42.662;23.352;2023-02-13T03:31:20;50.35;;;21.85;;
41077;SDS011;26823;42.662;23.352;2023-02-13T03:42:10;55.05;;;21.20;;
41077;SDS011;26823;42.662;23.352;2023-02-13T03:45:05;52.83;;;22.05;;
41077;SDS011;26823;42.662;23.352;2023-02-13T03:48:04;54.75;;;22.13;;
41077;SDS011;26823;42.662;23.352;2023-02-13T03:50:57;58.90;;;24.67;;
41077;SDS011;26823;42.662;23.352;2023-02-13T03:53:24;51.78;;;21.58;;
41077;SDS011;26823;42.662;23.352;2023-02-13T03:55:53;55.15;;;22.50;;
41077;SDS011;26823;42.662;23.352;2023-02-13T03:58:44;53.85;;;22.45;;
41077;SDS011;26823;42.662;23.352;2023-02-13T04:01:33;50.80;;;21.10;;
41077;SDS011;26823;42.662;23.352;2023-02-13T04:04:08;55.03;;;21.88;;
41077;SDS011;26823;42.662;23.352;2023-02-13T04:06:38;51.05;;;22.58;;
41077;SDS011;26823;42.662;23.352;2023-02-13T04:09:18;54.25;;;21.25;;
41077;SDS011;26823;42.662;23.352;2023-02-13T04:11:55;51.80;;;23.48;;
41077;SDS011;26823;42.662;23.352;2023-02-13T04:14:29;50.10;;;21.92;;
41077;SDS011;26823;42.662;23.352;2023-02-13T04:17:05;44.73;;;16.53;;
41077;SDS011;26823;42.662;23.352;2023-02-13T04:19:34;52.15;;;22.83;;
41077;SDS011;26823;42.662;23.352;2023-02-13T04:22:00;53.53;;;22.73;;
41077;SDS011;26823;42.662;23.352;2023-02-13T04:24:26;53.78;;;22.50;;
41077;SDS011;26823;42.662;23.352;2023-02-13T04:26:53;51.78;;;22.48;;
41077;SDS011;26823;42.662;23.352;2023-02-13T04:29:21;53.10;;;23.08;;
41077;SDS011;26823;42.662;23.352;2023-02-13T04:31:48;57.95;;;23.02;;
41077;SDS011;26823;42.662;23.352;2023-02-13T04:34:13;58.25;;;23.40;;
41077;SDS011;26823;42.662;23.352;2023-02-13T04:36:39;52.75;;;21.42;;
41077;SDS011;26823;42.662;23.352;2023-02-13T04:39:04;46.15;;;21.05;;
41077;SDS011;26823;42.662;23.352;2023-02-13T04:41:30;57.50;;;23.65;;
41077;SDS011;26823;42.662;23.352;2023-02-13T04:43:55;47.42;;;21.17;;
41077;SDS011;26823;42.662;23.352;2023-02-13T04:46:21;46.85;;;21.70;;
41077;SDS011;26823;42.662;23.352;2023-02-13T04:48:46;52.10;;;22.95;;
41077;SDS011;26823;42.662;23.352;2023-02-13T04:51:11;74.45;;;30.40;;
41077;SDS011;26823;42.662;23.352;2023-02-13T04:53:37;76.38;;;32.92;;
41077;SDS011;26823;42.662;23.352;2023-02-13T04:56:02;68.10;;;29.67;;
41077;SDS011;26823;42.662;23.352;2023-02-13T04:58:28;73.97;;;30.73;;
41077;SDS011;26823;42.662;23.352;2023-02-13T05:00:54;75.15;;;31.90;;
41077;SDS011;26823;42.662;23.352;2023-02-13T05:03:19;72.63;;;32.13;;
41077;SDS011;26823;42.662;23.352;2023-02-13T05:05:45;66.05;;;29.23;;
41077;SDS011;26823;42.662;23.352;2023-02-13T05:08:10;63.08;;;27.48;;
41077;SDS011;26823;42.662;23.352;2023-02-13T05:10:36;66.28;;;29.50;;
41077;SDS011;26823;42.662;23.352;2023-02-13T05:13:01;70.63;;;30.05;;
41077;SDS011;26823;42.662;23.352;2023-02-13T05:15:27;64.43;;;29.42;;
41077;SDS011;26823;42.662;23.352;2023-02-13T05:17:53;70.13;;;29.95;;
41077;SDS011;26823;42.662;23.352;2023-02-13T05:20:18;70.32;;;29.77;;
41077;SDS011;26823;42.662;23.352;2023-02-13T05:22:48;63.50;;;28.80;;
41077;SDS011;26823;42.662;23.352;2023-02-13T05:25:34;65.18;;;28.27;;
41077;SDS011;26823;42.662;23.352;2023-02-13T05:28:01;72.80;;;30.23;;
41077;SDS011;26823;42.662;23.352;2023-02-13T05:30:26;74.43;;;31.33;;
41077;SDS011;26823;42.662;23.352;2023-02-13T05:32:52;67.78;;;29.38;;
41077;SDS011;26823;42.662;23.352;2023-02-13T05:35:19;66.80;;;27.83;;
41077;SDS011;26823;42.662;23.352;2023-02-13T05:37:46;64.00;;;27.00;;
41077;SDS011;26823;42.662;23.352;2023-02-13T05:40:11;58.63;;;27.05;;
41077;SDS011;26823;42.662;23.352;2023-02-13T05:42:37;76.97;;;32.58;;
41077;SDS011;26823;42.662;23.352;2023-02-13T05:45:05;71.28;;;30.67;;
41077;SDS011;26823;42.662;23.352;2023-02-13T05:47:32;61.25;;;27.17;;
41077;SDS011;26823;42.662;23.352;2023-02-13T05:49:57;66.95;;;27.10;;
41077;SDS011;26823;42.662;23.352;2023-02-13T05:52:23;65.35;;;28.55;;
41077;SDS011;26823;42.662;23.352;2023-02-13T05:54:48;65.80;;;27.52;;
41077;SDS011;26823;42.662;23.352;2023-02-13T05:57:14;66.75;;;27.58;;
41077;SDS011;26823;42.662;23.352;2023-02-13T05:59:39;68.40;;;27.83;;
41077;SDS011;26823;42.662;23.352;2023-02-13T06:02:04;59.75;;;25.95;;
41077;SDS011;26823;42.662;23.352;2023-02-13T06:04:30;53.67;;;26.17;;
41077;SDS011;26823;42.662;23.352;2023-02-13T06:06:55;69.22;;;28.08;;
41077;SDS011;26823;42.662;23.352;2023-02-13T06:09:21;62.97;;;25.63;;
41077;SDS011;26823;42.662;23.352;2023-02-13T06:11:46;63.75;;;25.35;;
41077;SDS011;26823;42.662;23.352;2023-02-13T06:14:12;67.43;;;28.13;;
41077;SDS011;26823;42.662;23.352;2023-02-13T06:16:38;56.70;;;25.00;;
41077;SDS011;26823;42.662;23.352;2023-02-13T06:19:04;65.47;;;27.67;;
41077;SDS011;26823;42.662;23.352;2023-02-13T06:21:30;69.57;;;27.60;;
41077;SDS011;26823;42.662;23.352;2023-02-13T06:23:57;68.90;;;27.75;;
41077;SDS011;26823;42.662;23.352;2023-02-13T06:26:23;57.08;;;25.45;;
41077;SDS011;26823;42.662;23.352;2023-02-13T06:28:48;65.53;;;26.98;;
41077;SDS011;26823;42.662;23.352;2023-02-13T06:31:13;66.13;;;26.35;;
41077;SDS011;26823;42.662;23.352;2023-02-13T06:33:39;62.20;;;25.83;;
41077;SDS011;26823;42.662;23.352;2023-02-13T06:36:04;58.70;;;26.77;;
41077;SDS011;26823;42.662;23.352;2023-02-13T06:38:30;58.67;;;26.15;;
41077;SDS011;26823;42.662;23.352;2023-02-13T06:40:58;57.65;;;25.17;;
41077;SDS011;26823;42.662;23.352;2023-02-13T06:43:25;60.78;;;26.75;;
41077;SDS011;26823;42.662;23.352;2023-02-13T06:45:51;62.65;;;26.55;;
41077;SDS011;26823;42.662;23.352;2023-02-13T06:48:20;60.60;;;24.65;;
41077;SDS011;26823;42.662;23.352;2023-02-13T06:50:46;60.75;;;25.95;;
41077;SDS011;26823;42.662;23.352;2023-02-13T06:53:11;63.85;;;25.00;;
41077;SDS011;26823;42.662;23.352;2023-02-13T06:55:37;48.45;;;23.25;;
41077;SDS011;26823;42.662;23.352;2023-02-13T06:58:05;67.25;;;27.63;;
41077;SDS011;26823;42.662;23.352;2023-02-13T07:00:30;86.05;;;30.20;;
41077;SDS011;26823;42.662;23.352;2023-02-13T07:03:02;76.47;;;27.67;;
41077;SDS011;26823;42.662;23.352;2023-02-13T07:05:29;74.47;;;29.15;;
41077;SDS011;26823;42.662;23.352;2023-02-13T07:07:55;76.85;;;26.85;;
41077;SDS011;26823;42.662;23.352;2023-02-13T07:10:21;71.53;;;28.40;;
41077;SDS011;26823;42.662;23.352;2023-02-13T07:12:46;62.15;;;26.33;;
41077;SDS011;26823;42.662;23.352;2023-02-13T07:15:11;62.35;;;28.13;;
41077;SDS011;26823;42.662;23.352;2023-02-13T07:17:37;57.65;;;26.95;;
41077;SDS011;26823;42.662;23.352;2023-02-13T07:20:03;61.15;;;26.60;;
41077;SDS011;26823;42.662;23.352;2023-02-13T07:22:30;61.55;;;29.25;;
41077;SDS011;26823;42.662;23.352;2023-02-13T07:24:57;56.17;;;27.52;;
41077;SDS011;26823;42.662;23.352;2023-02-13T07:27:23;64.43;;;27.85;;
41077;SDS011;26823;42.662;23.352;2023-02-13T07:29:48;62.35;;;27.02;;
41077;SDS011;26823;42.662;23.352;2023-02-13T07:32:14;62.83;;;26.67;;
41077;SDS011;26823;42.662;23.352;2023-02-13T07:34:39;60.70;;;27.63;;
41077;SDS011;26823;42.662;23.352;2023-02-13T07:37:05;54.70;;;26.55;;
41077;SDS011;26823;42.662;23.352;2023-02-13T07:39:30;58.08;;;25.70;;
41077;SDS011;26823;42.662;23.352;2023-02-13T07:41:55;52.60;;;24.30;;
41077;SDS011;26823;42.662;23.352;2023-02-13T07:44:21;57.95;;;24.83;;
41077;SDS011;26823;42.662;23.352;2023-02-13T07:46:46;53.45;;;24.05;;
41077;SDS011;26823;42.662;23.352;2023-02-13T07:49:12;51.70;;;21.45;;
41077;SDS011;26823;42.662;23.352;2023-02-13T07:51:37;55.00;;;24.45;;
41077;SDS011;26823;42.662;23.352;2023-02-13T07:54:02;55.75;;;24.63;;
41077;SDS011;26823;42.662;23.352;2023-02-13T07:56:28;56.53;;;24.08;;
41077;SDS011;26823;42.662;23.352;2023-02-13T07:58:53;56.28;;;25.85;;
41077;SDS011;26823;42.662;23.352;2023-02-13T08:01:19;56.20;;;25.75;;
41077;SDS011;26823;42.662;23.352;2023-02-13T08:03:48;55.65;;;25.08;;
41077;SDS011;26823;42.662;23.352;2023-02-13T08:06:17;55.00;;;24.10;;
41077;SDS011;26823;42.662;23.352;2023-02-13T08:08:44;51.78;;;23.40;;
41077;SDS011;26823;42.662;23.352;2023-02-13T08:11:21;56.60;;;23.73;;
41077;SDS011;26823;42.662;23.352;2023-02-13T08:14:13;48.47;;;24.45;;
41077;SDS011;26823;42.662;23.352;2023-02-13T08:16:39;49.17;;;23.10;;
41077;SDS011;26823;42.662;23.352;2023-02-13T08:19:04;52.55;;;24.55;;
41077;SDS011;26823;42.662;23.352;2023-02-13T08:21:30;53.63;;;24.55;;
41077;SDS011;26823;42.662;23.352;2023-02-13T08:23:55;48.65;;;23.65;;
41077;SDS011;26823;42.662;23.352;2023-02-13T08:26:21;56.25;;;23.15;;
41077;SDS011;26823;42.662;23.352;2023-02-13T08:28:46;47.08;;;22.02;;
41077;SDS011;26823;42.662;23.352;2023-02-13T08:31:12;54.38;;;23.30;;
41077;SDS011;26823;42.662;23.352;2023-02-13T08:33:37;53.75;;;23.30;;
41077;SDS011;26823;42.662;23.352;2023-02-13T08:36:05;59.33;;;25.52;;
41077;SDS011;26823;42.662;23.352;2023-02-13T08:38:31;57.75;;;24.05;;
41077;SDS011;26823;42.662;23.352;2023-02-13T08:40:56;57.78;;;24.75;;
41077;SDS011;26823;42.662;23.352;2023-02-13T08:43:22;49.85;;;22.95;;
41077;SDS011;26823;42.662;23.352;2023-02-13T08:45:47;48.70;;;22.67;;
41077;SDS011;26823;42.662;23.352;2023-02-13T08:48:13;49.28;;;22.70;;
41077;SDS011;26823;42.662;23.352;2023-02-13T08:50:38;48.20;;;21.77;;
41077;SDS011;26823;42.662;23.352;2023-02-13T08:53:03;51.88;;;23.65;;
41077;SDS011;26823;42.662;23.352;2023-02-13T08:55:31;47.75;;;22.17;;
41077;SDS011;26823;42.662;23.352;2023-02-13T08:58:00;51.35;;;22.38;;
41077;SDS011;26823;42.662;23.352;2023-02-13T09:00:29;47.83;;;22.42;;
41077;SDS011;26823;42.662;23.352;2023-02-13T09:02:55;54.08;;;24.25;;
41077;SDS011;26823;42.662;23.352;2023-02-13T09:05:25;54.50;;;23.13;;
41077;SDS011;26823;42.662;23.352;2023-02-13T09:07:51;52.38;;;21.50;;
41077;SDS011;26823;42.662;23.352;2023-02-13T09:10:17;49.42;;;22.80;;
41077;SDS011;26823;42.662;23.352;2023-02-13T09:12:52;55.80;;;23.02;;
41077;SDS011;26823;42.662;23.352;2023-02-13T09:15:21;51.10;;;23.85;;
41077;SDS011;26823;42.662;23.352;2023-02-13T09:17:49;50.30;;;22.40;;
41077;SDS011;26823;42.662;23.352;2023-02-13T09:20:14;54.80;;;24.27;;
41077;SDS011;26823;42.662;23.352;2023-02-13T09:22:40;48.65;;;23.38;;
41077;SDS011;26823;42.662;23.352;2023-02-13T09:25:07;52.20;;;22.98;;
41077;SDS011;26823;42.662;23.352;2023-02-13T09:27:51;57.60;;;22.67;;
41077;SDS011;26823;42.662;23.352;2023-02-13T09:30:40;56.53;;;23.83;;
41077;SDS011;26823;42.662;23.352;2023-02-13T09:33:26;46.38;;;22.15;;
41077;SDS011;26823;42.662;23.352;2023-02-13T09:38:53;51.58;;;21.48;;
41077;SDS011;26823;42.662;23.352;2023-02-13T09:41:30;53.78;;;24.00;;
41077;SDS011;26823;42.662;23.352;2023-02-13T09:44:33;50.60;;;23.42;;
41077;SDS011;26823;42.662;23.352;2023-02-13T09:50:03;46.95;;;23.08;;
41077;SDS011;26823;42.662;23.352;2023-02-13T09:52:36;46.10;;;22.30;;
41077;SDS011;26823;42.662;23.352;2023-02-13T09:55:21;55.78;;;25.63;;
41077;SDS011;26823;42.662;23.352;2023-02-13T10:00:47;49.55;;;23.23;;
41077;SDS011;26823;42.662;23.352;2023-02-13T10:16:32;48.78;;;24.52;;
41077;SDS011;26823;42.662;23.352;2023-02-13T10:19:01;53.70;;;26.25;;
41077;SDS011;26823;42.662;23.352;2023-02-13T10:21:33;51.63;;;25.67;;
41077;SDS011;26823;42.662;23.352;2023-02-13T10:24:10;49.30;;;25.63;;
41077;SDS011;26823;42.662;23.352;2023-02-13T10:26:41;45.65;;;24.38;;
41077;SDS011;26823;42.662;23.352;2023-02-13T10:29:14;52.72;;;25.17;;
41077;SDS011;26823;42.662;23.352;2023-02-13T10:31:59;45.95;;;23.70;;
41077;SDS011;26823;42.662;23.352;2023-02-13T10:34:30;42.90;;;22.45;;
41077;SDS011;26823;42.662;23.352;2023-02-13T10:37:01;47.22;;;22.38;;
41077;SDS011;26823;42.662;23.352;2023-02-13T10:39:30;47.83;;;22.65;;
41077;SDS011;26823;42.662;23.352;2023-02-13T10:52:54;41.33;;;20.75;;
41077;SDS011;26823;42.662;23.352;2023-02-13T10:58:26;40.40;;;20.70;;
41077;SDS011;26823;42.662;23.352;2023-02-13T11:01:05;44.78;;;22.77;;
41077;SDS011;26823;42.662;23.352;2023-02-13T11:03:38;45.70;;;24.45;;
41077;SDS011;26823;42.662;23.352;2023-02-13T11:06:07;42.85;;;22.42;;
41077;SDS011;26823;42.662;23.352;2023-02-13T11:11:41;44.35;;;21.55;;
41077;SDS011;26823;42.662;23.352;2023-02-13T11:14:18;38.38;;;19.27;;
41077;SDS011;26823;42.662;23.352;2023-02-13T11:16:56;39.20;;;19.98;;
41077;SDS011;26823;42.662;23.352;2023-02-13T11:19:24;34.45;;;19.38;;
41077;SDS011;26823;42.662;23.352;2023-02-13T11:22:00;38.75;;;19.73;;
41077;SDS011;26823;42.662;23.352;2023-02-13T11:24:29;34.50;;;18.75;;
41077;SDS011;26823;42.662;23.352;2023-02-13T11:27:00;36.72;;;20.27;;
41077;SDS011;26823;42.662;23.352;2023-02-13T11:29:35;29.25;;;16.98;;
41077;SDS011;26823;42.662;23.352;2023-02-13T11:34:44;35.15;;;18.85;;
41077;SDS011;26823;42.662;23.352;2023-02-13T11:37:18;31.50;;;17.55;;
41077;SDS011;26823;42.662;23.352;2023-02-13T11:39:47;34.63;;;18.77;;
41077;SDS011;26823;42.662;23.352;2023-02-13T11:42:28;33.65;;;18.65;;
41077;SDS011;26823;42.662;23.352;2023-02-13T11:47:43;31.85;;;17.33;;
41077;SDS011;26823;42.662;23.352;2023-02-13T11:50:23;33.10;;;17.65;;
41077;SDS011;26823;42.662;23.352;2023-02-13T11:53:02;32.85;;;18.05;;
41077;SDS011;26823;42.662;23.352;2023-02-13T11:55:37;31.05;;;17.00;;
41077;SDS011;26823;42.662;23.352;2023-02-13T12:00:36;37.22;;;19.88;;
41077;SDS011;26823;42.662;23.352;2023-02-13T12:08:39;33.53;;;17.58;;
41077;SDS011;26823;42.662;23.352;2023-02-13T12:13:54;31.70;;;16.23;;
41077;SDS011;26823;42.662;23.352;2023-02-13T12:19:23;24.30;;;13.25;;
41077;SDS011;26823;42.662;23.352;2023-02-13T12:27:45;24.20;;;13.70;;
41077;SDS011;26823;42.662;23.352;2023-02-13T12:38:42;25.40;;;13.82;;
41077;SDS011;26823;42.662;23.352;2023-02-13T13:19:39;16.38;;;9.95;;
41077;SDS011;26823;42.662;23.352;2023-02-13T13:27:57;19.77;;;10.27;;
41077;SDS011;26823;42.662;23.352;2023-02-13T13:30:32;19.63;;;10.10;;
41077;SDS011;26823;42.662;23.352;2023-02-13T13:33:01;18.80;;;9.68;;
41077;SDS011;26823;42.662;23.352;2023-02-13T13:35:27;14.63;;;9.70;;
41077;SDS011;26823;42.662;23.352;2023-02-13T13:38:04;16.67;;;10.40;;
41077;SDS011;26823;42.662;23.352;2023-02-13T13:41:00;17.67;;;10.75;;
41077;SDS011;26823;42.662;23.352;2023-02-13T13:51:52;15.23;;;9.50;;
41077;SDS011;26823;42.662;23.352;2023-02-13T13:54:18;18.77;;;10.25;;
41077;SDS011;26823;42.662;23.352;2023-02-13T14:07:47;18.17;;;9.52;;
41077;SDS011;26823;42.662;23.352;2023-02-13T14:12:49;21.52;;;11.32;;
41077;SDS011;26823;42.662;23.352;2023-02-13T14:18:20;21.77;;;11.70;;
41077;SDS011;26823;42.662;23.352;2023-02-13T14:28:40;20.25;;;11.05;;
41077;SDS011;26823;42.662;23.352;2023-02-13T14:31:22;16.92;;;9.90;;
41077;SDS011;26823;42.662;23.352;2023-02-13T14:34:00;18.35;;;10.35;;
41077;SDS011;26823;42.662;23.352;2023-02-13T14:36:32;17.75;;;10.43;;
41077;SDS011;26823;42.662;23.352;2023-02-13T14:39:05;19.00;;;10.57;;
41077;SDS011;26823;42.662;23.352;2023-02-13T14:47:17;19.02;;;11.00;;
41077;SDS011;26823;42.662;23.352;2023-02-13T14:49:49;20.30;;;11.05;;
41077;SDS011;26823;42.662;23.352;2023-02-13T14:55:33;22.85;;;11.88;;
41077;SDS011;26823;42.662;23.352;2023-02-13T15:03:45;21.10;;;11.18;;
41077;SDS011;26823;42.662;23.352;2023-02-13T15:06:41;18.85;;;10.80;;
41077;SDS011;26823;42.662;23.352;2023-02-13T15:09:44;17.90;;;9.48;;
41077;SDS011;26823;42.662;23.352;2023-02-13T15:14:59;15.30;;;9.05;;
41077;SDS011;26823;42.662;23.352;2023-02-13T15:17:27;21.58;;;10.73;;
41077;SDS011;26823;42.662;23.352;2023-02-13T15:20:05;18.55;;;10.45;;
41077;SDS011;26823;42.662;23.352;2023-02-13T15:22:44;22.58;;;10.63;;
41077;SDS011;26823;42.662;23.352;2023-02-13T15:28:06;17.00;;;9.15;;
41077;SDS011;26823;42.662;23.352;2023-02-13T15:30:39;17.17;;;8.93;;
41077;SDS011;26823;42.662;23.352;2023-02-13T15:33:18;18.20;;;8.63;;
41077;SDS011;26823;42.662;23.352;2023-02-13T15:35:46;16.92;;;8.52;;
41077;SDS011;26823;42.662;23.352;2023-02-13T15:41:00;15.77;;;8.70;;
41077;SDS011;26823;42.662;23.352;2023-02-13T15:43:33;17.85;;;9.52;;
41077;SDS011;26823;42.662;23.352;2023-02-13T15:46:04;16.42;;;9.00;;
41077;SDS011;26823;42.662;23.352;2023-02-13T15:48:32;19.65;;;10.10;;
41077;SDS011;26823;42.662;23.352;2023-02-13T15:50:59;17.60;;;9.40;;
41077;SDS011;26823;42.662;23.352;2023-02-13T15:53:25;17.77;;;10.07;;
41077;SDS011;26823;42.662;23.352;2023-02-13T15:56:03;21.98;;;10.65;;
41077;SDS011;26823;42.662;23.352;2023-02-13T15:58:30;18.48;;;9.38;;
41077;SDS011;26823;42.662;23.352;2023-02-13T16:01:07;18.25;;;8.63;;
41077;SDS011;26823;42.662;23.352;2023-02-13T16:03:33;18.38;;;10.15;;
41077;SDS011;26823;42.662;23.352;2023-02-13T16:06:01;20.40;;;10.82;;
41077;SDS011;26823;42.662;23.352;2023-02-13T16:08:31;19.75;;;9.88;;
41077;SDS011;26823;42.662;23.352;2023-02-13T16:19:52;20.10;;;10.23;;
41077;SDS011;26823;42.662;23.352;2023-02-13T16:25:01;21.48;;;10.48;;
41077;SDS011;26823;42.662;23.352;2023-02-13T16:27:36;21.85;;;11.13;;
41077;SDS011;26823;42.662;23.352;2023-02-13T16:30:24;25.23;;;11.20;;
41077;SDS011;26823;42.662;23.352;2023-02-13T16:40:59;25.73;;;12.98;;
41077;SDS011;26823;42.662;23.352;2023-02-13T16:51:09;27.70;;;12.57;;
41077;SDS011;26823;42.662;23.352;2023-02-13T16:53:35;28.02;;;13.80;;
41077;SDS011;26823;42.662;23.352;2023-02-13T16:56:02;24.27;;;12.80;;
41077;SDS011;26823;42.662;23.352;2023-02-13T16:58:31;23.75;;;12.45;;
41077;SDS011;26823;42.662;23.352;2023-02-13T17:00:57;26.35;;;12.27;;
41077;SDS011;26823;42.662;23.352;2023-02-13T17:03:23;30.50;;;13.30;;
41077;SDS011;26823;42.662;23.352;2023-02-13T17:05:48;23.63;;;12.93;;
41077;SDS011;26823;42.662;23.352;2023-02-13T17:08:13;27.63;;;13.52;;
41077;SDS011;26823;42.662;23.352;2023-02-13T17:10:39;30.75;;;13.23;;
41077;SDS011;26823;42.662;23.352;2023-02-13T17:15:35;25.33;;;13.52;;
41077;SDS011;26823;42.662;23.352;2023-02-13T17:18:01;27.80;;;14.23;;
41077;SDS011;26823;42.662;23.352;2023-02-13T17:20:30;22.98;;;12.77;;
41077;SDS011;26823;42.662;23.352;2023-02-13T17:22:58;29.95;;;14.63;;
41077;SDS011;26823;42.662;23.352;2023-02-13T17:25:29;31.05;;;13.52;;
41077;SDS011;26823;42.662;23.352;2023-02-13T17:28:01;26.93;;;13.73;;
41077;SDS011;26823;42.662;23.352;2023-02-13T17:30:33;21.48;;;13.07;;
41077;SDS011;26823;42.662;23.352;2023-02-13T17:33:01;33.13;;;15.05;;
41077;SDS011;26823;42.662;23.352;2023-02-13T17:35:31;27.05;;;14.27;;
41077;SDS011;26823;42.662;23.352;2023-02-13T17:37:57;28.52;;;13.10;;
41077;SDS011;26823;42.662;23.352;2023-02-13T17:40:24;32.88;;;14.95;;
41077;SDS011;26823;42.662;23.352;2023-02-13T17:42:53;25.60;;;14.48;;
41077;SDS011;26823;42.662;23.352;2023-02-13T17:45:21;26.08;;;13.15;;
41077;SDS011;26823;42.662;23.352;2023-02-13T17:47:47;30.35;;;14.27;;
41077;SDS011;26823;42.662;23.352;2023-02-13T17:50:14;26.25;;;14.27;;
41077;SDS011;26823;42.662;23.352;2023-02-13T17:52:41;25.20;;;13.73;;
41077;SDS011;26823;42.662;23.352;2023-02-13T17:55:18;25.42;;;13.07;;
41077;SDS011;26823;42.662;23.352;2023-02-13T17:57:48;25.95;;;13.02;;
41077;SDS011;26823;42.662;23.352;2023-02-13T18:00:21;27.95;;;14.05;;
41077;SDS011;26823;42.662;23.352;2023-02-13T18:02:49;22.58;;;11.90;;
41077;SDS011;26823;42.662;23.352;2023-02-13T18:05:15;21.50;;;11.45;;
41077;SDS011;26823;42.662;23.352;2023-02-13T18:07:42;23.70;;;12.50;;
41077;SDS011;26823;42.662;23.352;2023-02-13T18:10:10;24.73;;;11.82;;
41077;SDS011;26823;42.662;23.352;2023-02-13T18:12:38;25.80;;;12.73;;
41077;SDS011;26823;42.662;23.352;2023-02-13T18:15:04;22.50;;;12.93;;
41077;SDS011;26823;42.662;23.352;2023-02-13T18:17:30;28.88;;;12.45;;
41077;SDS011;26823;42.662;23.352;2023-02-13T18:19:56;25.50;;;12.73;;
41077;SDS011;26823;42.662;23.352;2023-02-13T18:22:22;24.08;;;11.98;;
41077;SDS011;26823;42.662;23.352;2023-02-13T18:24:48;27.75;;;13.20;;
41077;SDS011;26823;42.662;23.352;2023-02-13T18:27:14;29.27;;;13.55;;
41077;SDS011;26823;42.662;23.352;2023-02-13T18:29:39;23.73;;;12.35;;
41077;SDS011;26823;42.662;23.352;2023-02-13T18:32:05;26.63;;;12.48;;
41077;SDS011;26823;42.662;23.352;2023-02-13T18:34:32;23.25;;;12.20;;
41077;SDS011;26823;42.662;23.352;2023-02-13T18:36:59;26.45;;;12.32;;